Terminal Aerodrome Forecast
Issued by NWS Mt. Holly, NJ

Home | Current Version | Previous Version | Text Only | Print | Product List | Glossary On
Versions: 1 2 3 4 5 6 7 8 9 10 11 12
000
FTUS41 KPHI 031128
TAFACY
TAF
KACY 031128Z 0312/0412 VRB03KT P6SM SKC
     FM031500 22008KT P6SM FEW050
     FM031800 20012G20KT P6SM SCT050
     FM040000 19008KT P6SM FEW060 BKN200=

USA.gov is the U.S. government's official web portal to all federal, state and local government web resources and services.